sensor_id;sensor_type;location;lat;lon;timestamp;pressure;altitude;pressure_sealevel;temperature;humidity
32033;BME280;31720;52.638;9.216;2023-08-07T00:01:45;100399.53;;;16.25;100.00
32033;BME280;31720;52.638;9.216;2023-08-07T00:04:47;100395.78;;;16.28;100.00
32033;BME280;31720;52.638;9.216;2023-08-07T00:07:50;100397.84;;;16.24;100.00
32033;BME280;31720;52.638;9.216;2023-08-07T00:10:51;100392.31;;;16.27;100.00
32033;BME280;31720;52.638;9.216;2023-08-07T00:13:52;100391.56;;;16.25;100.00
32033;BME280;31720;52.638;9.216;2023-08-07T00:16:54;100389.75;;;16.26;100.00
32033;BME280;31720;52.638;9.216;2023-08-07T00:19:55;100391.31;;;16.28;100.00
32033;BME280;31720;52.638;9.216;2023-08-07T00:22:58;100394.13;;;16.27;100.00
32033;BME280;31720;52.638;9.216;2023-08-07T00:25:59;100395.72;;;16.18;100.00
32033;BME280;31720;52.638;9.216;2023-08-07T00:29:01;100396.19;;;16.12;100.00
32033;BME280;31720;52.638;9.216;2023-08-07T00:32:02;100394.38;;;16.12;100.00
32033;BME280;31720;52.638;9.216;2023-08-07T00:35:05;100397.56;;;16.06;100.00
32033;BME280;31720;52.638;9.216;2023-08-07T00:38:09;100391.72;;;16.12;100.00
32033;BME280;31720;52.638;9.216;2023-08-07T00:41:11;100396.56;;;16.07;100.00
32033;BME280;31720;52.638;9.216;2023-08-07T00:44:12;100390.06;;;16.11;100.00
32033;BME280;31720;52.638;9.216;2023-08-07T00:47:13;100392.47;;;16.14;100.00
32033;BME280;31720;52.638;9.216;2023-08-07T00:50:15;100396.09;;;16.13;100.00
32033;BME280;31720;52.638;9.216;2023-08-07T00:53:18;100392.31;;;16.16;100.00
32033;BME280;31720;52.638;9.216;2023-08-07T00:56:20;100401.41;;;16.13;100.00
32033;BME280;31720;52.638;9.216;2023-08-07T00:59:21;100402.63;;;15.98;100.00
32033;BME280;31720;52.638;9.216;2023-08-07T01:02:23;100391.84;;;15.90;100.00
32033;BME280;31720;52.638;9.216;2023-08-07T01:05:24;100396.63;;;15.85;100.00
32033;BME280;31720;52.638;9.216;2023-08-07T01:08:28;100392.94;;;15.76;100.00
32033;BME280;31720;52.638;9.216;2023-08-07T01:11:34;100393.31;;;15.71;100.00
32033;BME280;31720;52.638;9.216;2023-08-07T01:14:41;100391.75;;;15.69;100.00
32033;BME280;31720;52.638;9.216;2023-08-07T01:17:49;100389.81;;;15.71;100.00
32033;BME280;31720;52.638;9.216;2023-08-07T01:20:51;100394.41;;;15.69;100.00
32033;BME280;31720;52.638;9.216;2023-08-07T01:23:53;100387.66;;;15.65;100.00
32033;BME280;31720;52.638;9.216;2023-08-07T01:26:57;100392.13;;;15.64;100.00
32033;BME280;31720;52.638;9.216;2023-08-07T01:30:09;100390.88;;;15.57;100.00
32033;BME280;31720;52.638;9.216;2023-08-07T01:33:17;100391.97;;;15.55;100.00
32033;BME280;31720;52.638;9.216;2023-08-07T01:36:27;100394.16;;;15.50;100.00
32033;BME280;31720;52.638;9.216;2023-08-07T01:39:31;100389.81;;;15.48;100.00
32033;BME280;31720;52.638;9.216;2023-08-07T01:42:32;100384.50;;;15.48;100.00
32033;BME280;31720;52.638;9.216;2023-08-07T01:45:35;100387.75;;;15.52;100.00
32033;BME280;31720;52.638;9.216;2023-08-07T01:48:36;100393.09;;;15.41;100.00
32033;BME280;31720;52.638;9.216;2023-08-07T01:51:37;100390.91;;;15.46;100.00
32033;BME280;31720;52.638;9.216;2023-08-07T01:54:40;100376.56;;;15.48;100.00
32033;BME280;31720;52.638;9.216;2023-08-07T01:57:42;100385.47;;;15.47;100.00
32033;BME280;31720;52.638;9.216;2023-08-07T02:00:43;100375.25;;;15.43;100.00
32033;BME280;31720;52.638;9.216;2023-08-07T02:03:44;100384.91;;;15.33;100.00
32033;BME280;31720;52.638;9.216;2023-08-07T02:06:46;100390.31;;;15.31;100.00
32033;BME280;31720;52.638;9.216;2023-08-07T02:09:49;100394.78;;;15.31;100.00
32033;BME280;31720;52.638;9.216;2023-08-07T02:12:50;100383.59;;;15.27;100.00
32033;BME280;31720;52.638;9.216;2023-08-07T02:15:51;100381.03;;;15.26;100.00
32033;BME280;31720;52.638;9.216;2023-08-07T02:18:53;100382.97;;;15.23;100.00
32033;BME280;31720;52.638;9.216;2023-08-07T02:21:54;100379.63;;;15.21;100.00
32033;BME280;31720;52.638;9.216;2023-08-07T02:24:57;100380.19;;;15.25;100.00
32033;BME280;31720;52.638;9.216;2023-08-07T02:27:58;100379.00;;;15.18;100.00
32033;BME280;31720;52.638;9.216;2023-08-07T02:30:59;100385.84;;;15.20;100.00
32033;BME280;31720;52.638;9.216;2023-08-07T02:34:01;100400.19;;;15.18;100.00
32033;BME280;31720;52.638;9.216;2023-08-07T02:37:03;100391.28;;;15.19;100.00
32033;BME280;31720;52.638;9.216;2023-08-07T02:40:07;100401.38;;;15.25;100.00
32033;BME280;31720;52.638;9.216;2023-08-07T02:43:08;100401.28;;;15.27;100.00
32033;BME280;31720;52.638;9.216;2023-08-07T02:46:10;100391.03;;;15.22;100.00
32033;BME280;31720;52.638;9.216;2023-08-07T02:49:11;100398.25;;;15.20;100.00
32033;BME280;31720;52.638;9.216;2023-08-07T02:52:12;100388.88;;;15.27;100.00
32033;BME280;31720;52.638;9.216;2023-08-07T02:55:15;100390.22;;;15.21;100.00
32033;BME280;31720;52.638;9.216;2023-08-07T02:58:17;100397.06;;;15.13;100.00
32033;BME280;31720;52.638;9.216;2023-08-07T03:01:19;100393.19;;;15.17;100.00
32033;BME280;31720;52.638;9.216;2023-08-07T03:04:21;100397.78;;;15.15;100.00
32033;BME280;31720;52.638;9.216;2023-08-07T03:07:22;100403.91;;;15.15;100.00
32033;BME280;31720;52.638;9.216;2023-08-07T03:10:25;100401.13;;;15.17;100.00
32033;BME280;31720;52.638;9.216;2023-08-07T03:13:26;100400.19;;;15.18;100.00
32033;BME280;31720;52.638;9.216;2023-08-07T03:16:28;100406.41;;;15.17;100.00
32033;BME280;31720;52.638;9.216;2023-08-07T03:19:29;100406.41;;;15.17;100.00
32033;BME280;31720;52.638;9.216;2023-08-07T03:22:31;100400.78;;;15.21;100.00
32033;BME280;31720;52.638;9.216;2023-08-07T03:25:33;100405.47;;;15.18;100.00
32033;BME280;31720;52.638;9.216;2023-08-07T03:28:35;100410.41;;;15.11;100.00
32033;BME280;31720;52.638;9.216;2023-08-07T03:31:37;100411.13;;;15.13;100.00
32033;BME280;31720;52.638;9.216;2023-08-07T03:34:39;100403.66;;;15.07;100.00
32033;BME280;31720;52.638;9.216;2023-08-07T03:37:40;100405.34;;;15.08;100.00
32033;BME280;31720;52.638;9.216;2023-08-07T03:40:43;100400.44;;;15.04;100.00
32033;BME280;31720;52.638;9.216;2023-08-07T03:43:45;100409.44;;;15.01;100.00
32033;BME280;31720;52.638;9.216;2023-08-07T03:46:46;100400.28;;;15.05;100.00
32033;BME280;31720;52.638;9.216;2023-08-07T03:49:47;100412.44;;;15.08;100.00
32033;BME280;31720;52.638;9.216;2023-08-07T03:52:49;100416.88;;;15.07;100.00
32033;BME280;31720;52.638;9.216;2023-08-07T03:55:52;100417.13;;;15.04;100.00
32033;BME280;31720;52.638;9.216;2023-08-07T03:58:53;100411.09;;;15.02;100.00
32033;BME280;31720;52.638;9.216;2023-08-07T04:01:55;100413.88;;;15.01;100.00
32033;BME280;31720;52.638;9.216;2023-08-07T04:04:56;100413.75;;;15.02;100.00
32033;BME280;31720;52.638;9.216;2023-08-07T04:07:58;100416.53;;;15.01;100.00
32033;BME280;31720;52.638;9.216;2023-08-07T04:11:02;100411.25;;;15.01;100.00
32033;BME280;31720;52.638;9.216;2023-08-07T04:14:04;100413.66;;;15.04;100.00
32033;BME280;31720;52.638;9.216;2023-08-07T04:17:05;100412.91;;;15.02;100.00
32033;BME280;31720;52.638;9.216;2023-08-07T04:20:08;100415.91;;;14.97;100.00
32033;BME280;31720;52.638;9.216;2023-08-07T04:23:10;100407.50;;;15.03;100.00
32033;BME280;31720;52.638;9.216;2023-08-07T04:26:13;100417.59;;;14.98;100.00
32033;BME280;31720;52.638;9.216;2023-08-07T04:29:14;100417.72;;;14.96;100.00
32033;BME280;31720;52.638;9.216;2023-08-07T04:32:16;100421.94;;;14.99;100.00
32033;BME280;31720;52.638;9.216;2023-08-07T04:35:17;100423.50;;;15.02;100.00
32033;BME280;31720;52.638;9.216;2023-08-07T04:38:19;100424.69;;;14.97;100.00
32033;BME280;31720;52.638;9.216;2023-08-07T04:41:22;100435.53;;;15.06;100.00
32033;BME280;31720;52.638;9.216;2023-08-07T04:44:23;100431.09;;;15.06;100.00
32033;BME280;31720;52.638;9.216;2023-08-07T04:47:25;100433.84;;;15.05;100.00
32033;BME280;31720;52.638;9.216;2023-08-07T04:50:27;100433.03;;;15.04;100.00
32033;BME280;31720;52.638;9.216;2023-08-07T04:53:28;100431.22;;;15.05;100.00
32033;BME280;31720;52.638;9.216;2023-08-07T04:56:31;100431.44;;;15.02;100.00
32033;BME280;31720;52.638;9.216;2023-08-07T04:59:32;100434.31;;;14.98;100.00
32033;BME280;31720;52.638;9.216;2023-08-07T05:02:36;100435.06;;;15.01;100.00
32033;BME280;31720;52.638;9.216;2023-08-07T05:05:37;100447.31;;;15.02;100.00
32033;BME280;31720;52.638;9.216;2023-08-07T05:08:38;100442.88;;;15.02;100.00
32033;BME280;31720;52.638;9.216;2023-08-07T05:11:41;100452.75;;;15.00;100.00
32033;BME280;31720;52.638;9.216;2023-08-07T05:14:43;100450.19;;;14.98;100.00
32033;BME280;31720;52.638;9.216;2023-08-07T05:17:44;100452.84;;;14.98;100.00
32033;BME280;31720;52.638;9.216;2023-08-07T05:20:46;100454.91;;;14.95;100.00
32033;BME280;31720;52.638;9.216;2023-08-07T05:23:47;100460.78;;;14.98;100.00
32033;BME280;31720;52.638;9.216;2023-08-07T05:26:54;100461.75;;;14.97;100.00
32033;BME280;31720;52.638;9.216;2023-08-07T05:29:55;100452.75;;;15.00;100.00
32033;BME280;31720;52.638;9.216;2023-08-07T05:32:57;100461.75;;;14.97;100.00
32033;BME280;31720;52.638;9.216;2023-08-07T05:35:58;100462.34;;;14.90;100.00
32033;BME280;31720;52.638;9.216;2023-08-07T05:39:00;100464.28;;;14.99;100.00
32033;BME280;31720;52.638;9.216;2023-08-07T05:42:03;100472.72;;;15.04;100.00
32033;BME280;31720;52.638;9.216;2023-08-07T05:45:05;100480.75;;;15.03;100.00
32033;BME280;31720;52.638;9.216;2023-08-07T05:48:08;100482.47;;;15.04;100.00
32033;BME280;31720;52.638;9.216;2023-08-07T05:51:09;100485.34;;;15.12;100.00
32033;BME280;31720;52.638;9.216;2023-08-07T05:54:11;100482.00;;;15.21;100.00
32033;BME280;31720;52.638;9.216;2023-08-07T05:57:13;100477.66;;;15.20;100.00
32033;BME280;31720;52.638;9.216;2023-08-07T06:00:15;100480.78;;;15.14;100.00
32033;BME280;31720;52.638;9.216;2023-08-07T06:03:18;100479.25;;;15.22;100.00
32033;BME280;31720;52.638;9.216;2023-08-07T06:06:19;100486.09;;;15.25;100.00
32033;BME280;31720;52.638;9.216;2023-08-07T06:09:21;100494.28;;;15.22;100.00
32033;BME280;31720;52.638;9.216;2023-08-07T06:12:24;100489.34;;;15.17;100.00
32033;BME280;31720;52.638;9.216;2023-08-07T06:15:25;100483.44;;;15.14;100.00
32033;BME280;31720;52.638;9.216;2023-08-07T06:18:27;100487.28;;;15.21;100.00
32033;BME280;31720;52.638;9.216;2023-08-07T06:21:30;100492.22;;;15.26;100.00
32033;BME280;31720;52.638;9.216;2023-08-07T06:24:31;100485.38;;;15.23;100.00
32033;BME280;31720;52.638;9.216;2023-08-07T06:27:34;100491.78;;;15.32;100.00
32033;BME280;31720;52.638;9.216;2023-08-07T06:30:35;100486.13;;;15.36;100.00
32033;BME280;31720;52.638;9.216;2023-08-07T06:33:37;100495.13;;;15.34;100.00
32033;BME280;31720;52.638;9.216;2023-08-07T06:36:38;100482.88;;;15.33;100.00
32033;BME280;31720;52.638;9.216;2023-08-07T06:39:40;100487.44;;;15.42;100.00
32033;BME280;31720;52.638;9.216;2023-08-07T06:42:43;100489.72;;;15.46;100.00
32033;BME280;31720;52.638;9.216;2023-08-07T06:45:46;100499.13;;;15.51;100.00
32033;BME280;31720;52.638;9.216;2023-08-07T06:48:48;100493.84;;;15.51;100.00
32033;BME280;31720;52.638;9.216;2023-08-07T06:51:49;100489.16;;;15.54;100.00
32033;BME280;31720;52.638;9.216;2023-08-07T06:54:50;100497.94;;;15.55;100.00
32033;BME280;31720;52.638;9.216;2023-08-07T06:57:53;100493.84;;;15.51;100.00
32033;BME280;31720;52.638;9.216;2023-08-07T07:00:55;100491.66;;;15.56;100.00
32033;BME280;31720;52.638;9.216;2023-08-07T07:03:56;100492.97;;;15.61;100.00
32033;BME280;31720;52.638;9.216;2023-08-07T07:06:58;100494.59;;;15.64;100.00
32033;BME280;31720;52.638;9.216;2023-08-07T07:09:59;100492.41;;;15.69;100.00
32033;BME280;31720;52.638;9.216;2023-08-07T07:13:02;100504.81;;;15.68;100.00
32033;BME280;31720;52.638;9.216;2023-08-07T07:16:04;100506.50;;;15.69;100.00
32033;BME280;31720;52.638;9.216;2023-08-07T07:19:05;100503.63;;;15.72;100.00
32033;BME280;31720;52.638;9.216;2023-08-07T07:22:08;100506.63;;;15.79;100.00
32033;BME280;31720;52.638;9.216;2023-08-07T07:25:10;100508.91;;;15.95;100.00
32033;BME280;31720;52.638;9.216;2023-08-07T07:28:12;100506.00;;;15.98;100.00
32033;BME280;31720;52.638;9.216;2023-08-07T07:31:14;100518.03;;;16.02;100.00
32033;BME280;31720;52.638;9.216;2023-08-07T07:34:15;100517.31;;;16.11;100.00
32033;BME280;31720;52.638;9.216;2023-08-07T07:37:17;100515.50;;;16.12;100.00
32033;BME280;31720;52.638;9.216;2023-08-07T07:40:18;100519.72;;;16.14;100.00
32033;BME280;31720;52.638;9.216;2023-08-07T07:43:21;100522.13;;;16.17;100.00
32033;BME280;31720;52.638;9.216;2023-08-07T07:46:23;100515.25;;;16.15;100.00
32033;BME280;31720;52.638;9.216;2023-08-07T07:49:25;100527.06;;;16.22;100.00
32033;BME280;31720;52.638;9.216;2023-08-07T07:52:26;100531.16;;;16.26;100.00
32033;BME280;31720;52.638;9.216;2023-08-07T07:55:29;100527.66;;;16.26;100.00
32033;BME280;31720;52.638;9.216;2023-08-07T07:58:43;100543.09;;;16.32;100.00
32033;BME280;31720;52.638;9.216;2023-08-07T08:01:49;100542.34;;;16.30;100.00
32033;BME280;31720;52.638;9.216;2023-08-07T08:04:52;100549.97;;;16.12;100.00
32033;BME280;31720;52.638;9.216;2023-08-07T08:08:01;100570.94;;;15.92;100.00
32033;BME280;31720;52.638;9.216;2023-08-07T08:11:03;100572.38;;;15.74;100.00
32033;BME280;31720;52.638;9.216;2023-08-07T08:14:06;100567.78;;;15.65;100.00
32033;BME280;31720;52.638;9.216;2023-08-07T08:17:07;100566.03;;;15.41;100.00
32033;BME280;31720;52.638;9.216;2023-08-07T08:20:09;100568.22;;;15.36;100.00
32033;BME280;31720;52.638;9.216;2023-08-07T08:23:11;100564.59;;;15.37;100.00
32033;BME280;31720;52.638;9.216;2023-08-07T08:26:12;100557.75;;;15.46;100.00
32033;BME280;31720;52.638;9.216;2023-08-07T08:29:15;100559.81;;;15.54;100.00
32033;BME280;31720;52.638;9.216;2023-08-07T08:32:17;100563.34;;;15.65;100.00
32033;BME280;31720;52.638;9.216;2023-08-07T08:35:18;100568.91;;;15.73;100.00
32033;BME280;31720;52.638;9.216;2023-08-07T08:38:20;100575.28;;;15.82;100.00
32033;BME280;31720;52.638;9.216;2023-08-07T08:41:22;100577.94;;;15.93;100.00
32033;BME280;31720;52.638;9.216;2023-08-07T08:44:26;100583.69;;;15.98;100.00
32033;BME280;31720;52.638;9.216;2023-08-07T08:47:31;100573.09;;;16.21;100.00
32033;BME280;31720;52.638;9.216;2023-08-07T08:50:34;100580.06;;;16.33;100.00
32033;BME280;31720;52.638;9.216;2023-08-07T08:53:37;100581.28;;;16.40;100.00
32033;BME280;31720;52.638;9.216;2023-08-07T08:56:39;100591.63;;;16.43;100.00
32033;BME280;31720;52.638;9.216;2023-08-07T08:59:42;100581.75;;;16.45;100.00
32033;BME280;31720;52.638;9.216;2023-08-07T09:02:44;100583.75;;;16.53;100.00
32033;BME280;31720;52.638;9.216;2023-08-07T09:05:47;100586.19;;;16.56;100.00
32033;BME280;31720;52.638;9.216;2023-08-07T09:08:48;100590.41;;;16.47;100.00
32033;BME280;31720;52.638;9.216;2023-08-07T09:11:51;100597.53;;;16.47;100.00
32033;BME280;31720;52.638;9.216;2023-08-07T09:14:56;100596.94;;;16.43;100.00
32033;BME280;31720;52.638;9.216;2023-08-07T09:17:58;100589.94;;;16.42;100.00
32033;BME280;31720;52.638;9.216;2023-08-07T09:21:02;100598.50;;;16.46;100.00
32033;BME280;31720;52.638;9.216;2023-08-07T09:24:04;100611.28;;;16.41;100.00
32033;BME280;31720;52.638;9.216;2023-08-07T09:27:06;100603.34;;;16.41;100.00
32033;BME280;31720;52.638;9.216;2023-08-07T09:30:10;100602.84;;;16.47;100.00
32033;BME280;31720;52.638;9.216;2023-08-07T09:33:12;100615.03;;;16.49;100.00
32033;BME280;31720;52.638;9.216;2023-08-07T09:36:13;100618.00;;;16.56;100.00
32033;BME280;31720;52.638;9.216;2023-08-07T09:39:15;100616.94;;;16.59;100.00
32033;BME280;31720;52.638;9.216;2023-08-07T09:42:17;100624.16;;;16.57;100.00
32033;BME280;31720;52.638;9.216;2023-08-07T09:45:20;100622.72;;;16.53;100.00
32033;BME280;31720;52.638;9.216;2023-08-07T09:48:23;100629.72;;;16.42;100.00
32033;BME280;31720;52.638;9.216;2023-08-07T09:51:25;100637.44;;;16.12;100.00
32033;BME280;31720;52.638;9.216;2023-08-07T09:54:26;100651.91;;;15.85;100.00
32033;BME280;31720;52.638;9.216;2023-08-07T09:57:28;100645.78;;;15.61;100.00
32033;BME280;31720;52.638;9.216;2023-08-07T10:00:35;100640.22;;;15.53;100.00
32033;BME280;31720;52.638;9.216;2023-08-07T10:03:36;100645.03;;;15.71;100.00
32033;BME280;31720;52.638;9.216;2023-08-07T10:06:38;100639.94;;;15.80;100.00
32033;BME280;31720;52.638;9.216;2023-08-07T10:09:40;100644.78;;;15.86;100.00
32033;BME280;31720;52.638;9.216;2023-08-07T10:12:42;100659.59;;;15.88;100.00
32033;BME280;31720;52.638;9.216;2023-08-07T10:15:47;100642.03;;;15.98;100.00
32033;BME280;31720;52.638;9.216;2023-08-07T10:18:49;100643.38;;;16.04;100.00
32033;BME280;31720;52.638;9.216;2023-08-07T10:21:51;100657.56;;;16.03;100.00
32033;BME280;31720;52.638;9.216;2023-08-07T10:24:53;100652.25;;;16.03;100.00
32033;BME280;31720;52.638;9.216;2023-08-07T10:27:58;100649.88;;;16.11;100.00
32033;BME280;31720;52.638;9.216;2023-08-07T10:31:02;100655.53;;;16.18;100.00
32033;BME280;31720;52.638;9.216;2023-08-07T10:34:05;100675.56;;;16.33;100.00
32033;BME280;31720;52.638;9.216;2023-08-07T10:37:06;100654.81;;;16.27;100.00
32033;BME280;31720;52.638;9.216;2023-08-07T10:40:09;100659.63;;;16.33;100.00
32033;BME280;31720;52.638;9.216;2023-08-07T10:43:12;100655.66;;;16.50;100.00
32033;BME280;31720;52.638;9.216;2023-08-07T10:46:19;100650.94;;;16.65;100.00
32033;BME280;31720;52.638;9.216;2023-08-07T10:49:31;100658.66;;;16.68;100.00
32033;BME280;31720;52.638;9.216;2023-08-07T10:52:33;100652.50;;;16.67;100.00
32033;BME280;31720;52.638;9.216;2023-08-07T10:55:52;100697.97;;;16.63;100.00
32033;BME280;31720;52.638;9.216;2023-08-07T10:58:57;100687.63;;;16.26;100.00
32033;BME280;31720;52.638;9.216;2023-08-07T11:02:00;100693.47;;;15.96;100.00
32033;BME280;31720;52.638;9.216;2023-08-07T11:05:01;100696.09;;;15.85;100.00
32033;BME280;31720;52.638;9.216;2023-08-07T11:08:04;100715.88;;;15.92;100.00
32033;BME280;31720;52.638;9.216;2023-08-07T11:11:06;100691.75;;;15.84;100.00
32033;BME280;31720;52.638;9.216;2023-08-07T11:14:08;100693.25;;;15.99;100.00
32033;BME280;31720;52.638;9.216;2023-08-07T11:17:12;100696.63;;;16.12;100.00
32033;BME280;31720;52.638;9.216;2023-08-07T11:20:14;100704.84;;;16.32;100.00
32033;BME280;31720;52.638;9.216;2023-08-07T11:23:16;100704.50;;;16.59;100.00
32033;BME280;31720;52.638;9.216;2023-08-07T11:26:18;100712.81;;;16.88;100.00
32033;BME280;31720;52.638;9.216;2023-08-07T11:29:21;100713.66;;;16.99;100.00
32033;BME280;31720;52.638;9.216;2023-08-07T11:32:26;100760.09;;;16.60;100.00
32033;BME280;31720;52.638;9.216;2023-08-07T11:35:28;100739.19;;;16.33;100.00
32033;BME280;31720;52.638;9.216;2023-08-07T11:38:31;100750.25;;;16.05;100.00
32033;BME280;31720;52.638;9.216;2023-08-07T11:41:33;100745.94;;;16.15;100.00
32033;BME280;31720;52.638;9.216;2023-08-07T11:44:34;100744.88;;;16.29;100.00
32033;BME280;31720;52.638;9.216;2023-08-07T11:47:38;100730.03;;;16.37;100.00
32033;BME280;31720;52.638;9.216;2023-08-07T11:50:40;100725.59;;;16.60;100.00
32033;BME280;31720;52.638;9.216;2023-08-07T11:53:41;100726.81;;;16.79;100.00
32033;BME280;31720;52.638;9.216;2023-08-07T11:56:43;100725.97;;;16.78;100.00
32033;BME280;31720;52.638;9.216;2023-08-07T11:59:49;100736.34;;;16.81;100.00
32033;BME280;31720;52.638;9.216;2023-08-07T12:02:52;100727.91;;;16.76;100.00
32033;BME280;31720;52.638;9.216;2023-08-07T12:05:55;100717.03;;;16.79;100.00
32033;BME280;31720;52.638;9.216;2023-08-07T12:08:57;100722.44;;;16.89;100.00
32033;BME280;31720;52.638;9.216;2023-08-07T12:11:59;100721.34;;;17.03;100.00
32033;BME280;31720;52.638;9.216;2023-08-07T12:15:00;100724.38;;;16.98;100.00
32033;BME280;31720;52.638;9.216;2023-08-07T12:18:03;100727.09;;;17.19;100.00
32033;BME280;31720;52.638;9.216;2023-08-07T12:21:07;100726.59;;;17.25;100.00
32033;BME280;31720;52.638;9.216;2023-08-07T12:24:08;100735.22;;;17.17;100.00
32033;BME280;31720;52.638;9.216;2023-08-07T12:27:10;100742.06;;;17.20;100.00
32033;BME280;31720;52.638;9.216;2023-08-07T12:30:13;100739.56;;;17.07;100.00
32033;BME280;31720;52.638;9.216;2023-08-07T12:33:15;100776.63;;;17.09;100.00
32033;BME280;31720;52.638;9.216;2023-08-07T12:36:17;100775.41;;;17.02;100.00
32033;BME280;31720;52.638;9.216;2023-08-07T12:39:19;100761.56;;;16.76;100.00
32033;BME280;31720;52.638;9.216;2023-08-07T12:42:21;100753.00;;;16.72;100.00
32033;BME280;31720;52.638;9.216;2023-08-07T12:45:22;100761.44;;;16.77;100.00
32033;BME280;31720;52.638;9.216;2023-08-07T12:48:25;100760.59;;;16.77;100.00
32033;BME280;31720;52.638;9.216;2023-08-07T12:51:28;100772.16;;;16.64;100.00
32033;BME280;31720;52.638;9.216;2023-08-07T12:54:29;100787.69;;;16.58;100.00
32033;BME280;31720;52.638;9.216;2023-08-07T12:57:31;100780.47;;;16.71;100.00
32033;BME280;31720;52.638;9.216;2023-08-07T13:00:32;100783.53;;;16.78;100.00
32033;BME280;31720;52.638;9.216;2023-08-07T13:03:35;100787.59;;;16.93;100.00
32033;BME280;31720;52.638;9.216;2023-08-07T13:06:36;100801.22;;;17.11;100.00
32033;BME280;31720;52.638;9.216;2023-08-07T13:09:38;100796.72;;;17.34;100.00
32033;BME280;31720;52.638;9.216;2023-08-07T13:12:40;100791.19;;;17.37;100.00
32033;BME280;31720;52.638;9.216;2023-08-07T13:15:42;100791.88;;;17.50;100.00
32033;BME280;31720;52.638;9.216;2023-08-07T13:18:44;100786.41;;;17.63;100.00
32033;BME280;31720;52.638;9.216;2023-08-07T13:21:46;100790.28;;;17.47;100.00
32033;BME280;31720;52.638;9.216;2023-08-07T13:24:47;100787.97;;;17.22;100.00
32033;BME280;31720;52.638;9.216;2023-08-07T13:27:49;100809.81;;;17.14;100.00
32033;BME280;31720;52.638;9.216;2023-08-07T13:30:50;100807.50;;;17.10;100.00
32033;BME280;31720;52.638;9.216;2023-08-07T13:33:55;100812.06;;;17.30;100.00
32033;BME280;31720;52.638;9.216;2023-08-07T13:36:56;100820.22;;;17.61;100.00
32033;BME280;31720;52.638;9.216;2023-08-07T13:39:59;100818.53;;;17.60;100.00
32033;BME280;31720;52.638;9.216;2023-08-07T13:43:00;100821.56;;;17.44;100.00
32033;BME280;31720;52.638;9.216;2023-08-07T13:46:07;100846.09;;;17.47;100.00
32033;BME280;31720;52.638;9.216;2023-08-07T13:49:10;100838.97;;;17.48;100.00
32033;BME280;31720;52.638;9.216;2023-08-07T13:52:11;100805.56;;;17.78;100.00
32033;BME280;31720;52.638;9.216;2023-08-07T13:55:13;100812.22;;;18.25;100.00
32033;BME280;31720;52.638;9.216;2023-08-07T13:58:14;100821.38;;;18.11;100.00
32033;BME280;31720;52.638;9.216;2023-08-07T14:01:16;100834.59;;;18.02;100.00
32033;BME280;31720;52.638;9.216;2023-08-07T14:04:19;100816.41;;;18.18;100.00
32033;BME280;31720;52.638;9.216;2023-08-07T14:07:20;100824.75;;;18.55;100.00
32033;BME280;31720;52.638;9.216;2023-08-07T14:10:22;100834.03;;;18.82;100.00
32033;BME280;31720;52.638;9.216;2023-08-07T14:13:24;100824.47;;;19.10;100.00
32033;BME280;31720;52.638;9.216;2023-08-07T14:16:25;100824.81;;;18.86;100.00
32033;BME280;31720;52.638;9.216;2023-08-07T14:19:28;100824.81;;;18.86;100.00
32033;BME280;31720;52.638;9.216;2023-08-07T14:22:30;100824.41;;;18.90;100.00
32033;BME280;31720;52.638;9.216;2023-08-07T14:25:32;100831.47;;;19.11;100.00
32033;BME280;31720;52.638;9.216;2023-08-07T14:28:33;100851.59;;;18.94;100.00
32033;BME280;31720;52.638;9.216;2023-08-07T14:31:35;100829.28;;;18.64;100.00
32033;BME280;31720;52.638;9.216;2023-08-07T14:34:37;100846.97;;;18.44;100.00
32033;BME280;31720;52.638;9.216;2023-08-07T14:37:39;100857.59;;;18.23;100.00
32033;BME280;31720;52.638;9.216;2023-08-07T14:40:40;100858.50;;;18.13;100.00
32033;BME280;31720;52.638;9.216;2023-08-07T14:43:44;100863.53;;;17.95;100.00
32033;BME280;31720;52.638;9.216;2023-08-07T14:46:45;100858.97;;;17.74;100.00
32033;BME280;31720;52.638;9.216;2023-08-07T14:49:48;100875.19;;;17.60;100.00
32033;BME280;31720;52.638;9.216;2023-08-07T14:52:50;100895.75;;;17.24;100.00
32033;BME280;31720;52.638;9.216;2023-08-07T14:55:51;100902.59;;;16.93;100.00
32033;BME280;31720;52.638;9.216;2023-08-07T14:58:53;100881.50;;;16.81;100.00
32033;BME280;31720;52.638;9.216;2023-08-07T15:01:54;100863.88;;;16.91;100.00
32033;BME280;31720;52.638;9.216;2023-08-07T15:04:57;100870.66;;;16.95;100.00
32033;BME280;31720;52.638;9.216;2023-08-07T15:08:00;100884.28;;;17.02;100.00
32033;BME280;31720;52.638;9.216;2023-08-07T15:11:01;100880.66;;;17.25;100.00
32033;BME280;31720;52.638;9.216;2023-08-07T15:14:03;100886.56;;;17.51;100.00
32033;BME280;31720;52.638;9.216;2023-08-07T15:17:05;100895.97;;;17.78;100.00
32033;BME280;31720;52.638;9.216;2023-08-07T15:20:09;100892.88;;;17.93;100.00
32033;BME280;31720;52.638;9.216;2023-08-07T15:23:10;100894.41;;;18.07;100.00
32033;BME280;31720;52.638;9.216;2023-08-07T15:26:12;100893.53;;;17.86;100.00
32033;BME280;31720;52.638;9.216;2023-08-07T15:29:13;100911.16;;;17.75;100.00
32033;BME280;31720;52.638;9.216;2023-08-07T15:32:15;100911.66;;;17.69;100.00
32033;BME280;31720;52.638;9.216;2023-08-07T15:35:20;100914.19;;;17.60;100.00
32033;BME280;31720;52.638;9.216;2023-08-07T15:38:21;100919.41;;;17.39;100.00
32033;BME280;31720;52.638;9.216;2023-08-07T15:41:23;100935.81;;;17.10;100.00